sensor_id;sensor_type;location;lat;lon;timestamp;P1;durP1;ratioP1;P2;durP2;ratioP2
5295;SDS011;2670;42.720;23.336;2023-04-24T00:01:01;6.33;;;4.90;;
5295;SDS011;2670;42.720;23.336;2023-04-24T00:03:28;9.20;;;5.00;;
5295;SDS011;2670;42.720;23.336;2023-04-24T00:05:55;6.80;;;4.70;;
5295;SDS011;2670;42.720;23.336;2023-04-24T00:08:21;10.63;;;5.10;;
5295;SDS011;2670;42.720;23.336;2023-04-24T00:10:48;8.23;;;4.83;;
5295;SDS011;2670;42.720;23.336;2023-04-24T00:13:17;13.97;;;5.27;;
5295;SDS011;2670;42.720;23.336;2023-04-24T00:15:43;10.20;;;5.80;;
5295;SDS011;2670;42.720;23.336;2023-04-24T00:18:11;8.10;;;5.70;;
5295;SDS011;2670;42.720;23.336;2023-04-24T00:20:38;9.80;;;5.20;;
5295;SDS011;2670;42.720;23.336;2023-04-24T00:23:05;7.17;;;5.33;;
5295;SDS011;2670;42.720;23.336;2023-04-24T00:25:32;7.10;;;5.07;;
5295;SDS011;2670;42.720;23.336;2023-04-24T00:27:59;8.63;;;5.30;;
5295;SDS011;2670;42.720;23.336;2023-04-24T00:30:26;6.33;;;5.10;;
5295;SDS011;2670;42.720;23.336;2023-04-24T00:32:53;9.00;;;5.60;;
5295;SDS011;2670;42.720;23.336;2023-04-24T00:35:21;7.80;;;5.93;;
5295;SDS011;2670;42.720;23.336;2023-04-24T00:37:48;8.00;;;5.30;;
5295;SDS011;2670;42.720;23.336;2023-04-24T00:40:16;9.27;;;5.70;;
5295;SDS011;2670;42.720;23.336;2023-04-24T00:42:43;7.27;;;5.37;;
5295;SDS011;2670;42.720;23.336;2023-04-24T00:45:10;7.50;;;5.10;;
5295;SDS011;2670;42.720;23.336;2023-04-24T00:47:37;10.07;;;5.17;;
5295;SDS011;2670;42.720;23.336;2023-04-24T00:50:05;11.03;;;5.93;;
5295;SDS011;2670;42.720;23.336;2023-04-24T00:52:34;11.00;;;5.77;;
5295;SDS011;2670;42.720;23.336;2023-04-24T00:55:02;9.10;;;5.47;;
5295;SDS011;2670;42.720;23.336;2023-04-24T00:57:29;8.30;;;4.90;;
5295;SDS011;2670;42.720;23.336;2023-04-24T00:59:56;7.80;;;4.73;;
5295;SDS011;2670;42.720;23.336;2023-04-24T01:02:23;11.73;;;5.53;;
5295;SDS011;2670;42.720;23.336;2023-04-24T01:04:51;9.50;;;4.80;;
5295;SDS011;2670;42.720;23.336;2023-04-24T01:07:19;8.77;;;5.10;;
5295;SDS011;2670;42.720;23.336;2023-04-24T01:09:48;5.47;;;4.87;;
5295;SDS011;2670;42.720;23.336;2023-04-24T01:12:16;5.90;;;4.77;;
5295;SDS011;2670;42.720;23.336;2023-04-24T01:14:43;8.13;;;5.10;;
5295;SDS011;2670;42.720;23.336;2023-04-24T01:17:10;11.10;;;4.30;;
5295;SDS011;2670;42.720;23.336;2023-04-24T01:19:37;5.97;;;4.70;;
5295;SDS011;2670;42.720;23.336;2023-04-24T01:22:09;7.03;;;5.43;;
5295;SDS011;2670;42.720;23.336;2023-04-24T01:24:37;10.97;;;5.27;;
5295;SDS011;2670;42.720;23.336;2023-04-24T01:27:04;8.07;;;5.30;;
5295;SDS011;2670;42.720;23.336;2023-04-24T01:29:31;6.80;;;5.50;;
5295;SDS011;2670;42.720;23.336;2023-04-24T01:31:58;11.20;;;5.60;;
5295;SDS011;2670;42.720;23.336;2023-04-24T01:34:25;10.43;;;6.17;;
5295;SDS011;2670;42.720;23.336;2023-04-24T01:36:52;13.93;;;6.07;;
5295;SDS011;2670;42.720;23.336;2023-04-24T01:39:20;9.07;;;5.80;;
5295;SDS011;2670;42.720;23.336;2023-04-24T01:41:48;10.47;;;5.90;;
5295;SDS011;2670;42.720;23.336;2023-04-24T01:44:15;10.93;;;6.77;;
5295;SDS011;2670;42.720;23.336;2023-04-24T01:46:42;8.17;;;6.13;;
5295;SDS011;2670;42.720;23.336;2023-04-24T01:49:09;13.00;;;6.53;;
5295;SDS011;2670;42.720;23.336;2023-04-24T01:51:36;9.93;;;5.93;;
5295;SDS011;2670;42.720;23.336;2023-04-24T01:54:03;12.90;;;7.07;;
5295;SDS011;2670;42.720;23.336;2023-04-24T01:56:31;11.00;;;8.30;;
5295;SDS011;2670;42.720;23.336;2023-04-24T01:58:59;18.23;;;10.80;;
5295;SDS011;2670;42.720;23.336;2023-04-24T02:01:32;15.17;;;10.30;;
5295;SDS011;2670;42.720;23.336;2023-04-24T02:04:00;14.37;;;10.70;;
5295;SDS011;2670;42.720;23.336;2023-04-24T02:06:27;11.70;;;8.43;;
5295;SDS011;2670;42.720;23.336;2023-04-24T02:08:54;11.40;;;7.30;;
5295;SDS011;2670;42.720;23.336;2023-04-24T02:11:21;11.70;;;8.00;;
5295;SDS011;2670;42.720;23.336;2023-04-24T02:13:49;14.53;;;7.90;;
5295;SDS011;2670;42.720;23.336;2023-04-24T02:16:16;16.77;;;7.83;;
5295;SDS011;2670;42.720;23.336;2023-04-24T02:18:43;10.90;;;7.53;;
5295;SDS011;2670;42.720;23.336;2023-04-24T02:21:10;10.00;;;6.80;;
5295;SDS011;2670;42.720;23.336;2023-04-24T02:23:37;9.43;;;7.17;;
5295;SDS011;2670;42.720;23.336;2023-04-24T02:26:04;13.60;;;6.93;;
5295;SDS011;2670;42.720;23.336;2023-04-24T02:28:31;16.33;;;7.60;;
5295;SDS011;2670;42.720;23.336;2023-04-24T02:30:59;12.20;;;7.53;;
5295;SDS011;2670;42.720;23.336;2023-04-24T02:33:26;19.17;;;7.40;;
5295;SDS011;2670;42.720;23.336;2023-04-24T02:35:52;10.67;;;6.70;;
5295;SDS011;2670;42.720;23.336;2023-04-24T02:38:19;12.80;;;7.60;;
5295;SDS011;2670;42.720;23.336;2023-04-24T02:40:46;12.63;;;7.00;;
5295;SDS011;2670;42.720;23.336;2023-04-24T02:43:12;9.73;;;7.20;;
5295;SDS011;2670;42.720;23.336;2023-04-24T02:45:39;12.90;;;6.67;;
5295;SDS011;2670;42.720;23.336;2023-04-24T02:48:07;16.77;;;9.23;;
5295;SDS011;2670;42.720;23.336;2023-04-24T02:50:34;15.57;;;9.20;;
5295;SDS011;2670;42.720;23.336;2023-04-24T02:53:00;20.90;;;9.43;;
5295;SDS011;2670;42.720;23.336;2023-04-24T02:55:27;17.60;;;9.03;;
5295;SDS011;2670;42.720;23.336;2023-04-24T02:57:54;15.90;;;9.77;;
5295;SDS011;2670;42.720;23.336;2023-04-24T03:00:21;16.30;;;9.73;;
5295;SDS011;2670;42.720;23.336;2023-04-24T03:02:48;15.80;;;8.30;;
5295;SDS011;2670;42.720;23.336;2023-04-24T03:05:16;11.80;;;8.63;;
5295;SDS011;2670;42.720;23.336;2023-04-24T03:07:42;13.33;;;9.20;;
5295;SDS011;2670;42.720;23.336;2023-04-24T03:10:10;14.97;;;9.57;;
5295;SDS011;2670;42.720;23.336;2023-04-24T03:12:37;12.10;;;8.03;;
5295;SDS011;2670;42.720;23.336;2023-04-24T03:15:04;12.80;;;8.57;;
5295;SDS011;2670;42.720;23.336;2023-04-24T03:17:31;17.83;;;9.13;;
5295;SDS011;2670;42.720;23.336;2023-04-24T03:19:58;15.47;;;8.83;;
5295;SDS011;2670;42.720;23.336;2023-04-24T03:22:26;19.07;;;10.30;;
5295;SDS011;2670;42.720;23.336;2023-04-24T03:24:53;29.30;;;11.40;;
5295;SDS011;2670;42.720;23.336;2023-04-24T03:27:20;21.10;;;10.90;;
5295;SDS011;2670;42.720;23.336;2023-04-24T03:29:46;20.37;;;10.93;;
5295;SDS011;2670;42.720;23.336;2023-04-24T03:32:13;26.20;;;12.00;;
5295;SDS011;2670;42.720;23.336;2023-04-24T03:34:40;26.23;;;13.87;;
5295;SDS011;2670;42.720;23.336;2023-04-24T03:37:06;27.43;;;11.30;;
5295;SDS011;2670;42.720;23.336;2023-04-24T03:39:35;27.13;;;12.20;;
5295;SDS011;2670;42.720;23.336;2023-04-24T03:42:01;40.20;;;16.63;;
5295;SDS011;2670;42.720;23.336;2023-04-24T03:44:28;53.33;;;19.17;;
5295;SDS011;2670;42.720;23.336;2023-04-24T03:46:55;33.37;;;13.77;;
5295;SDS011;2670;42.720;23.336;2023-04-24T03:49:21;40.73;;;15.57;;
5295;SDS011;2670;42.720;23.336;2023-04-24T03:51:48;30.83;;;15.50;;
5295;SDS011;2670;42.720;23.336;2023-04-24T03:54:15;41.60;;;16.87;;
5295;SDS011;2670;42.720;23.336;2023-04-24T03:56:44;54.70;;;21.73;;
5295;SDS011;2670;42.720;23.336;2023-04-24T03:59:10;55.23;;;19.17;;
5295;SDS011;2670;42.720;23.336;2023-04-24T04:01:38;49.60;;;20.30;;
5295;SDS011;2670;42.720;23.336;2023-04-24T04:04:05;30.10;;;16.07;;
5295;SDS011;2670;42.720;23.336;2023-04-24T04:06:32;30.73;;;14.10;;
5295;SDS011;2670;42.720;23.336;2023-04-24T04:08:59;28.73;;;15.13;;
5295;SDS011;2670;42.720;23.336;2023-04-24T04:11:26;30.07;;;14.40;;
5295;SDS011;2670;42.720;23.336;2023-04-24T04:13:54;31.73;;;15.00;;
5295;SDS011;2670;42.720;23.336;2023-04-24T04:16:21;33.53;;;14.83;;
5295;SDS011;2670;42.720;23.336;2023-04-24T04:18:48;27.47;;;15.33;;
5295;SDS011;2670;42.720;23.336;2023-04-24T04:21:15;27.83;;;15.27;;
5295;SDS011;2670;42.720;23.336;2023-04-24T04:23:42;22.83;;;13.40;;
5295;SDS011;2670;42.720;23.336;2023-04-24T04:26:08;15.40;;;10.00;;
5295;SDS011;2670;42.720;23.336;2023-04-24T04:28:35;16.73;;;9.80;;
5295;SDS011;2670;42.720;23.336;2023-04-24T04:31:04;21.53;;;10.40;;
5295;SDS011;2670;42.720;23.336;2023-04-24T04:33:32;26.57;;;11.47;;
5295;SDS011;2670;42.720;23.336;2023-04-24T04:36:01;18.10;;;10.17;;
5295;SDS011;2670;42.720;23.336;2023-04-24T04:38:28;15.13;;;9.80;;
5295;SDS011;2670;42.720;23.336;2023-04-24T04:40:56;16.30;;;8.70;;
5295;SDS011;2670;42.720;23.336;2023-04-24T04:43:23;14.43;;;9.27;;
5295;SDS011;2670;42.720;23.336;2023-04-24T04:45:50;14.27;;;10.37;;
5295;SDS011;2670;42.720;23.336;2023-04-24T04:48:19;16.33;;;10.10;;
5295;SDS011;2670;42.720;23.336;2023-04-24T04:50:45;18.00;;;11.43;;
5295;SDS011;2670;42.720;23.336;2023-04-24T04:53:12;16.00;;;11.33;;
5295;SDS011;2670;42.720;23.336;2023-04-24T04:55:39;16.83;;;10.80;;
5295;SDS011;2670;42.720;23.336;2023-04-24T04:58:05;17.93;;;11.07;;
5295;SDS011;2670;42.720;23.336;2023-04-24T05:00:32;24.10;;;12.00;;
5295;SDS011;2670;42.720;23.336;2023-04-24T05:03:00;19.50;;;11.60;;
5295;SDS011;2670;42.720;23.336;2023-04-24T05:05:28;27.73;;;8.90;;
5295;SDS011;2670;42.720;23.336;2023-04-24T05:07:55;20.00;;;8.97;;
5295;SDS011;2670;42.720;23.336;2023-04-24T05:10:22;21.83;;;8.47;;
5295;SDS011;2670;42.720;23.336;2023-04-24T05:12:49;19.47;;;9.10;;
5295;SDS011;2670;42.720;23.336;2023-04-24T05:15:15;28.67;;;8.57;;
5295;SDS011;2670;42.720;23.336;2023-04-24T05:17:42;22.70;;;8.60;;
5295;SDS011;2670;42.720;23.336;2023-04-24T05:20:09;22.83;;;9.43;;
5295;SDS011;2670;42.720;23.336;2023-04-24T05:22:37;13.17;;;6.93;;
5295;SDS011;2670;42.720;23.336;2023-04-24T05:25:04;19.20;;;8.80;;
5295;SDS011;2670;42.720;23.336;2023-04-24T05:27:31;15.93;;;8.50;;
5295;SDS011;2670;42.720;23.336;2023-04-24T05:29:58;12.87;;;6.80;;
5295;SDS011;2670;42.720;23.336;2023-04-24T05:32:24;14.00;;;7.63;;
5295;SDS011;2670;42.720;23.336;2023-04-24T05:34:52;10.00;;;6.63;;
5295;SDS011;2670;42.720;23.336;2023-04-24T05:37:18;13.93;;;7.97;;
5295;SDS011;2670;42.720;23.336;2023-04-24T05:39:47;15.77;;;6.83;;
5295;SDS011;2670;42.720;23.336;2023-04-24T05:42:13;12.10;;;6.90;;
5295;SDS011;2670;42.720;23.336;2023-04-24T05:44:40;14.40;;;7.27;;
5295;SDS011;2670;42.720;23.336;2023-04-24T05:47:07;14.17;;;7.40;;
5295;SDS011;2670;42.720;23.336;2023-04-24T05:49:33;8.50;;;6.30;;
5295;SDS011;2670;42.720;23.336;2023-04-24T05:52:00;12.80;;;7.00;;
5295;SDS011;2670;42.720;23.336;2023-04-24T05:54:29;11.93;;;7.00;;
5295;SDS011;2670;42.720;23.336;2023-04-24T05:56:57;14.13;;;6.67;;
5295;SDS011;2670;42.720;23.336;2023-04-24T05:59:24;16.80;;;7.00;;
5295;SDS011;2670;42.720;23.336;2023-04-24T06:01:50;9.57;;;7.10;;
5295;SDS011;2670;42.720;23.336;2023-04-24T06:04:17;15.50;;;6.63;;
5295;SDS011;2670;42.720;23.336;2023-04-24T06:06:44;10.03;;;7.00;;
5295;SDS011;2670;42.720;23.336;2023-04-24T06:09:11;9.80;;;6.57;;
5295;SDS011;2670;42.720;23.336;2023-04-24T06:11:38;15.60;;;6.90;;
5295;SDS011;2670;42.720;23.336;2023-04-24T06:14:06;11.40;;;6.47;;
5295;SDS011;2670;42.720;23.336;2023-04-24T06:16:32;14.33;;;7.37;;
5295;SDS011;2670;42.720;23.336;2023-04-24T06:18:59;15.03;;;6.93;;
5295;SDS011;2670;42.720;23.336;2023-04-24T06:21:26;9.27;;;6.33;;
5295;SDS011;2670;42.720;23.336;2023-04-24T06:23:53;16.90;;;6.63;;
5295;SDS011;2670;42.720;23.336;2023-04-24T06:26:21;10.00;;;6.77;;
5295;SDS011;2670;42.720;23.336;2023-04-24T06:28:49;10.50;;;6.43;;
5295;SDS011;2670;42.720;23.336;2023-04-24T06:31:18;12.37;;;7.20;;
5295;SDS011;2670;42.720;23.336;2023-04-24T06:33:44;11.80;;;7.43;;
5295;SDS011;2670;42.720;23.336;2023-04-24T06:36:11;11.20;;;6.53;;
5295;SDS011;2670;42.720;23.336;2023-04-24T06:38:38;10.13;;;7.20;;
5295;SDS011;2670;42.720;23.336;2023-04-24T06:41:05;12.07;;;6.83;;
5295;SDS011;2670;42.720;23.336;2023-04-24T06:43:32;12.17;;;6.87;;
5295;SDS011;2670;42.720;23.336;2023-04-24T06:45:59;15.33;;;7.07;;
5295;SDS011;2670;42.720;23.336;2023-04-24T06:48:28;14.57;;;7.30;;
5295;SDS011;2670;42.720;23.336;2023-04-24T06:50:55;16.30;;;6.70;;
5295;SDS011;2670;42.720;23.336;2023-04-24T06:53:22;17.40;;;8.03;;
5295;SDS011;2670;42.720;23.336;2023-04-24T06:55:49;24.00;;;7.33;;
5295;SDS011;2670;42.720;23.336;2023-04-24T06:58:15;11.03;;;7.47;;
5295;SDS011;2670;42.720;23.336;2023-04-24T07:00:42;15.87;;;7.73;;
5295;SDS011;2670;42.720;23.336;2023-04-24T07:03:09;13.17;;;8.20;;
5295;SDS011;2670;42.720;23.336;2023-04-24T07:05:37;16.67;;;7.57;;
5295;SDS011;2670;42.720;23.336;2023-04-24T07:08:04;17.40;;;7.60;;
5295;SDS011;2670;42.720;23.336;2023-04-24T07:10:31;16.93;;;8.50;;
5295;SDS011;2670;42.720;23.336;2023-04-24T07:13:00;17.83;;;8.70;;
5295;SDS011;2670;42.720;23.336;2023-04-24T07:15:27;16.00;;;8.70;;
5295;SDS011;2670;42.720;23.336;2023-04-24T07:17:54;12.77;;;8.33;;
5295;SDS011;2670;42.720;23.336;2023-04-24T07:20:20;18.93;;;8.40;;
5295;SDS011;2670;42.720;23.336;2023-04-24T07:22:49;11.77;;;8.20;;
5295;SDS011;2670;42.720;23.336;2023-04-24T07:25:16;12.17;;;8.13;;
5295;SDS011;2670;42.720;23.336;2023-04-24T07:27:43;9.50;;;7.00;;
5295;SDS011;2670;42.720;23.336;2023-04-24T07:30:10;14.50;;;7.80;;
5295;SDS011;2670;42.720;23.336;2023-04-24T07:32:37;9.60;;;6.80;;
5295;SDS011;2670;42.720;23.336;2023-04-24T07:35:04;15.73;;;7.40;;
5295;SDS011;2670;42.720;23.336;2023-04-24T07:37:32;12.40;;;8.30;;
5295;SDS011;2670;42.720;23.336;2023-04-24T07:40:00;12.63;;;7.60;;
5295;SDS011;2670;42.720;23.336;2023-04-24T07:42:27;18.27;;;7.90;;
5295;SDS011;2670;42.720;23.336;2023-04-24T07:44:55;10.00;;;7.07;;
5295;SDS011;2670;42.720;23.336;2023-04-24T07:47:22;12.67;;;7.63;;
5295;SDS011;2670;42.720;23.336;2023-04-24T07:49:49;13.83;;;7.80;;
5295;SDS011;2670;42.720;23.336;2023-04-24T07:52:15;13.70;;;8.60;;
5295;SDS011;2670;42.720;23.336;2023-04-24T07:54:42;15.50;;;7.57;;
5295;SDS011;2670;42.720;23.336;2023-04-24T07:57:10;12.37;;;7.23;;
5295;SDS011;2670;42.720;23.336;2023-04-24T07:59:37;10.67;;;6.70;;
5295;SDS011;2670;42.720;23.336;2023-04-24T08:02:03;14.03;;;9.97;;
5295;SDS011;2670;42.720;23.336;2023-04-24T08:04:31;10.40;;;6.43;;
5295;SDS011;2670;42.720;23.336;2023-04-24T08:06:58;12.03;;;6.17;;
5295;SDS011;2670;42.720;23.336;2023-04-24T08:09:24;7.60;;;5.70;;
5295;SDS011;2670;42.720;23.336;2023-04-24T08:11:51;12.90;;;6.77;;
5295;SDS011;2670;42.720;23.336;2023-04-24T08:14:19;9.27;;;6.63;;
5295;SDS011;2670;42.720;23.336;2023-04-24T08:16:46;9.00;;;6.40;;
5295;SDS011;2670;42.720;23.336;2023-04-24T08:19:13;7.10;;;5.70;;
5295;SDS011;2670;42.720;23.336;2023-04-24T08:21:39;11.90;;;5.63;;
5295;SDS011;2670;42.720;23.336;2023-04-24T08:24:06;10.20;;;6.27;;
5295;SDS011;2670;42.720;23.336;2023-04-24T08:26:33;16.67;;;6.50;;
5295;SDS011;2670;42.720;23.336;2023-04-24T08:29:00;10.37;;;6.27;;
5295;SDS011;2670;42.720;23.336;2023-04-24T08:31:28;7.30;;;5.90;;
5295;SDS011;2670;42.720;23.336;2023-04-24T08:33:55;10.80;;;5.80;;
5295;SDS011;2670;42.720;23.336;2023-04-24T08:36:22;10.70;;;6.00;;
5295;SDS011;2670;42.720;23.336;2023-04-24T08:38:48;11.20;;;6.50;;
5295;SDS011;2670;42.720;23.336;2023-04-24T08:41:15;9.80;;;6.17;;
5295;SDS011;2670;42.720;23.336;2023-04-24T08:43:44;11.03;;;5.67;;
5295;SDS011;2670;42.720;23.336;2023-04-24T08:46:13;8.43;;;6.23;;
5295;SDS011;2670;42.720;23.336;2023-04-24T08:48:42;18.83;;;6.30;;
5295;SDS011;2670;42.720;23.336;2023-04-24T08:51:10;9.30;;;6.80;;
5295;SDS011;2670;42.720;23.336;2023-04-24T08:53:37;11.63;;;7.07;;
5295;SDS011;2670;42.720;23.336;2023-04-24T08:56:04;9.37;;;6.10;;
5295;SDS011;2670;42.720;23.336;2023-04-24T08:58:31;10.90;;;6.57;;
5295;SDS011;2670;42.720;23.336;2023-04-24T09:00:59;8.33;;;6.00;;
5295;SDS011;2670;42.720;23.336;2023-04-24T09:03:27;10.87;;;6.40;;
5295;SDS011;2670;42.720;23.336;2023-04-24T09:05:58;11.50;;;6.60;;
5295;SDS011;2670;42.720;23.336;2023-04-24T09:08:27;16.67;;;6.03;;
5295;SDS011;2670;42.720;23.336;2023-04-24T09:10:55;10.20;;;5.90;;
5295;SDS011;2670;42.720;23.336;2023-04-24T09:13:23;16.37;;;5.70;;
5295;SDS011;2670;42.720;23.336;2023-04-24T09:15:50;6.80;;;5.50;;
5295;SDS011;2670;42.720;23.336;2023-04-24T09:18:18;9.33;;;5.33;;
5295;SDS011;2670;42.720;23.336;2023-04-24T09:23:34;12.93;;;6.47;;
5295;SDS011;2670;42.720;23.336;2023-04-24T09:26:02;11.20;;;6.20;;
5295;SDS011;2670;42.720;23.336;2023-04-24T09:28:31;12.27;;;5.40;;
5295;SDS011;2670;42.720;23.336;2023-04-24T09:31:05;8.03;;;5.57;;
5295;SDS011;2670;42.720;23.336;2023-04-24T09:33:34;13.93;;;6.30;;
5295;SDS011;2670;42.720;23.336;2023-04-24T09:36:00;6.50;;;5.33;;
5295;SDS011;2670;42.720;23.336;2023-04-24T09:38:32;7.30;;;4.87;;
5295;SDS011;2670;42.720;23.336;2023-04-24T09:41:00;10.10;;;5.50;;
5295;SDS011;2670;42.720;23.336;2023-04-24T09:43:28;8.47;;;5.57;;
5295;SDS011;2670;42.720;23.336;2023-04-24T09:45:56;7.20;;;4.90;;
5295;SDS011;2670;42.720;23.336;2023-04-24T09:48:30;6.70;;;5.37;;
5295;SDS011;2670;42.720;23.336;2023-04-24T09:50:57;8.47;;;5.30;;
5295;SDS011;2670;42.720;23.336;2023-04-24T09:53:26;12.10;;;5.90;;
5295;SDS011;2670;42.720;23.336;2023-04-24T09:55:54;10.63;;;5.97;;
5295;SDS011;2670;42.720;23.336;2023-04-24T09:58:24;8.03;;;4.70;;
5295;SDS011;2670;42.720;23.336;2023-04-24T10:00:53;7.30;;;5.30;;
5295;SDS011;2670;42.720;23.336;2023-04-24T10:03:23;12.30;;;5.60;;
5295;SDS011;2670;42.720;23.336;2023-04-24T10:05:52;13.80;;;5.70;;
5295;SDS011;2670;42.720;23.336;2023-04-24T10:08:19;18.57;;;5.40;;
5295;SDS011;2670;42.720;23.336;2023-04-24T10:10:46;9.20;;;4.63;;
5295;SDS011;2670;42.720;23.336;2023-04-24T10:13:14;7.27;;;4.93;;
5295;SDS011;2670;42.720;23.336;2023-04-24T10:15:42;10.20;;;5.43;;
5295;SDS011;2670;42.720;23.336;2023-04-24T10:18:10;13.70;;;6.17;;
5295;SDS011;2670;42.720;23.336;2023-04-24T10:20:38;10.90;;;4.93;;
5295;SDS011;2670;42.720;23.336;2023-04-24T10:23:05;12.50;;;5.37;;
5295;SDS011;2670;42.720;23.336;2023-04-24T10:25:34;6.90;;;5.00;;
5295;SDS011;2670;42.720;23.336;2023-04-24T10:28:02;7.63;;;5.50;;
5295;SDS011;2670;42.720;23.336;2023-04-24T10:30:32;7.60;;;5.07;;
5295;SDS011;2670;42.720;23.336;2023-04-24T10:33:01;5.80;;;4.87;;
5295;SDS011;2670;42.720;23.336;2023-04-24T10:35:30;7.30;;;5.10;;
5295;SDS011;2670;42.720;23.336;2023-04-24T10:37:58;5.47;;;4.80;;
5295;SDS011;2670;42.720;23.336;2023-04-24T10:40:30;6.00;;;5.00;;
5295;SDS011;2670;42.720;23.336;2023-04-24T10:42:58;7.00;;;5.00;;
5295;SDS011;2670;42.720;23.336;2023-04-24T10:45:25;6.20;;;4.70;;
5295;SDS011;2670;42.720;23.336;2023-04-24T10:48:03;8.53;;;5.00;;
5295;SDS011;2670;42.720;23.336;2023-04-24T10:50:41;16.00;;;5.90;;
5295;SDS011;2670;42.720;23.336;2023-04-24T10:53:12;6.90;;;4.87;;
5295;SDS011;2670;42.720;23.336;2023-04-24T10:55:41;12.40;;;5.53;;
5295;SDS011;2670;42.720;23.336;2023-04-24T10:58:09;7.90;;;4.77;;
5295;SDS011;2670;42.720;23.336;2023-04-24T11:00:37;9.57;;;4.80;;
5295;SDS011;2670;42.720;23.336;2023-04-24T11:03:06;8.70;;;5.00;;
5295;SDS011;2670;42.720;23.336;2023-04-24T11:05:50;8.17;;;5.07;;
5295;SDS011;2670;42.720;23.336;2023-04-24T11:08:26;9.40;;;5.27;;
5295;SDS011;2670;42.720;23.336;2023-04-24T11:10:55;14.17;;;5.50;;
5295;SDS011;2670;42.720;23.336;2023-04-24T11:16:44;7.70;;;4.90;;
5295;SDS011;2670;42.720;23.336;2023-04-24T11:19:20;7.13;;;4.90;;
5295;SDS011;2670;42.720;23.336;2023-04-24T11:21:54;15.13;;;5.10;;
5295;SDS011;2670;42.720;23.336;2023-04-24T11:24:29;8.47;;;4.83;;
5295;SDS011;2670;42.720;23.336;2023-04-24T11:27:07;10.07;;;4.97;;
5295;SDS011;2670;42.720;23.336;2023-04-24T11:29:40;14.17;;;5.30;;
5295;SDS011;2670;42.720;23.336;2023-04-24T11:32:14;12.50;;;5.90;;
5295;SDS011;2670;42.720;23.336;2023-04-24T11:34:46;12.23;;;6.53;;
5295;SDS011;2670;42.720;23.336;2023-04-24T11:37:14;10.00;;;6.83;;
5295;SDS011;2670;42.720;23.336;2023-04-24T11:39:41;9.03;;;5.23;;
5295;SDS011;2670;42.720;23.336;2023-04-24T11:42:08;8.40;;;5.77;;
5295;SDS011;2670;42.720;23.336;2023-04-24T11:44:35;10.60;;;5.60;;
5295;SDS011;2670;42.720;23.336;2023-04-24T11:47:03;7.33;;;5.53;;
5295;SDS011;2670;42.720;23.336;2023-04-24T11:49:30;6.93;;;5.10;;
5295;SDS011;2670;42.720;23.336;2023-04-24T11:51:58;7.80;;;5.73;;
5295;SDS011;2670;42.720;23.336;2023-04-24T11:54:26;7.37;;;5.53;;
5295;SDS011;2670;42.720;23.336;2023-04-24T11:56:53;6.60;;;4.80;;
5295;SDS011;2670;42.720;23.336;2023-04-24T11:59:21;5.30;;;4.73;;
5295;SDS011;2670;42.720;23.336;2023-04-24T12:01:48;8.70;;;5.03;;
5295;SDS011;2670;42.720;23.336;2023-04-24T12:04:16;8.13;;;5.17;;
5295;SDS011;2670;42.720;23.336;2023-04-24T12:07:00;5.10;;;4.30;;
5295;SDS011;2670;42.720;23.336;2023-04-24T12:09:27;4.57;;;4.13;;
5295;SDS011;2670;42.720;23.336;2023-04-24T12:11:56;5.10;;;4.53;;
5295;SDS011;2670;42.720;23.336;2023-04-24T12:14:23;5.83;;;3.87;;
5295;SDS011;2670;42.720;23.336;2023-04-24T12:16:50;8.00;;;4.13;;
5295;SDS011;2670;42.720;23.336;2023-04-24T12:19:20;5.20;;;4.17;;
5295;SDS011;2670;42.720;23.336;2023-04-24T12:21:58;5.53;;;4.33;;
5295;SDS011;2670;42.720;23.336;2023-04-24T12:24:28;4.63;;;3.83;;
5295;SDS011;2670;42.720;23.336;2023-04-24T12:26:55;7.03;;;4.83;;
5295;SDS011;2670;42.720;23.336;2023-04-24T12:29:23;8.23;;;4.57;;
5295;SDS011;2670;42.720;23.336;2023-04-24T12:31:50;7.80;;;5.30;;
5295;SDS011;2670;42.720;23.336;2023-04-24T12:34:18;6.07;;;4.10;;
5295;SDS011;2670;42.720;23.336;2023-04-24T12:36:45;5.70;;;4.10;;
5295;SDS011;2670;42.720;23.336;2023-04-24T12:39:17;6.63;;;4.27;;
5295;SDS011;2670;42.720;23.336;2023-04-24T12:41:50;6.83;;;4.47;;
5295;SDS011;2670;42.720;23.336;2023-04-24T12:44:28;5.33;;;4.20;;
5295;SDS011;2670;42.720;23.336;2023-04-24T12:46:56;4.83;;;4.17;;
5295;SDS011;2670;42.720;23.336;2023-04-24T12:49:23;8.07;;;4.30;;
5295;SDS011;2670;42.720;23.336;2023-04-24T12:51:50;6.87;;;4.17;;
5295;SDS011;2670;42.720;23.336;2023-04-24T12:54:18;10.07;;;4.70;;
5295;SDS011;2670;42.720;23.336;2023-04-24T12:56:45;6.67;;;4.40;;
5295;SDS011;2670;42.720;23.336;2023-04-24T12:59:12;5.57;;;4.07;;
5295;SDS011;2670;42.720;23.336;2023-04-24T13:01:38;3.63;;;3.33;;
5295;SDS011;2670;42.720;23.336;2023-04-24T13:04:05;4.17;;;3.37;;
5295;SDS011;2670;42.720;23.336;2023-04-24T13:06:32;4.90;;;4.20;;
5295;SDS011;2670;42.720;23.336;2023-04-24T13:08:59;5.90;;;4.03;;
5295;SDS011;2670;42.720;23.336;2023-04-24T13:11:27;10.83;;;4.60;;
5295;SDS011;2670;42.720;23.336;2023-04-24T13:13:54;5.40;;;4.03;;
5295;SDS011;2670;42.720;23.336;2023-04-24T13:16:21;6.93;;;4.20;;
5295;SDS011;2670;42.720;23.336;2023-04-24T13:18:48;6.67;;;4.10;;
5295;SDS011;2670;42.720;23.336;2023-04-24T13:21:15;7.10;;;4.83;;
5295;SDS011;2670;42.720;23.336;2023-04-24T13:23:42;7.40;;;5.33;;
5295;SDS011;2670;42.720;23.336;2023-04-24T13:26:08;8.30;;;5.20;;
5295;SDS011;2670;42.720;23.336;2023-04-24T13:28:37;9.57;;;5.20;;
5295;SDS011;2670;42.720;23.336;2023-04-24T13:31:03;9.17;;;4.90;;
5295;SDS011;2670;42.720;23.336;2023-04-24T13:33:31;5.50;;;4.70;;
5295;SDS011;2670;42.720;23.336;2023-04-24T13:35:58;6.63;;;4.87;;
5295;SDS011;2670;42.720;23.336;2023-04-24T13:38:25;12.70;;;4.30;;
5295;SDS011;2670;42.720;23.336;2023-04-24T13:40:51;6.30;;;5.10;;
5295;SDS011;2670;42.720;23.336;2023-04-24T13:43:18;11.17;;;5.60;;
5295;SDS011;2670;42.720;23.336;2023-04-24T13:45:46;7.90;;;4.90;;
5295;SDS011;2670;42.720;23.336;2023-04-24T13:48:13;10.93;;;4.47;;
5295;SDS011;2670;42.720;23.336;2023-04-24T13:50:41;5.70;;;4.40;;
5295;SDS011;2670;42.720;23.336;2023-04-24T13:53:08;19.63;;;5.13;;
5295;SDS011;2670;42.720;23.336;2023-04-24T13:55:34;13.07;;;4.60;;
5295;SDS011;2670;42.720;23.336;2023-04-24T13:58:02;4.90;;;4.30;;
5295;SDS011;2670;42.720;23.336;2023-04-24T14:00:29;6.47;;;4.40;;
5295;SDS011;2670;42.720;23.336;2023-04-24T14:02:57;9.97;;;3.70;;
5295;SDS011;2670;42.720;23.336;2023-04-24T14:05:24;5.07;;;4.03;;
5295;SDS011;2670;42.720;23.336;2023-04-24T14:07:51;13.13;;;4.70;;
5295;SDS011;2670;42.720;23.336;2023-04-24T14:10:20;4.33;;;3.93;;
5295;SDS011;2670;42.720;23.336;2023-04-24T14:12:47;7.30;;;3.50;;
5295;SDS011;2670;42.720;23.336;2023-04-24T14:15:14;10.37;;;4.07;;
5295;SDS011;2670;42.720;23.336;2023-04-24T14:17:41;3.80;;;3.30;;
5295;SDS011;2670;42.720;23.336;2023-04-24T14:20:10;7.00;;;3.60;;
5295;SDS011;2670;42.720;23.336;2023-04-24T14:22:38;5.87;;;4.00;;
5295;SDS011;2670;42.720;23.336;2023-04-24T14:25:05;9.67;;;4.07;;
5295;SDS011;2670;42.720;23.336;2023-04-24T14:27:33;3.90;;;3.50;;
5295;SDS011;2670;42.720;23.336;2023-04-24T14:30:00;4.30;;;3.70;;
5295;SDS011;2670;42.720;23.336;2023-04-24T14:32:28;4.53;;;3.50;;
5295;SDS011;2670;42.720;23.336;2023-04-24T14:34:54;8.57;;;4.30;;
5295;SDS011;2670;42.720;23.336;2023-04-24T14:37:23;8.13;;;4.23;;
5295;SDS011;2670;42.720;23.336;2023-04-24T14:39:49;6.97;;;4.23;;
5295;SDS011;2670;42.720;23.336;2023-04-24T14:42:16;6.33;;;3.97;;
5295;SDS011;2670;42.720;23.336;2023-04-24T14:44:43;12.13;;;5.40;;
5295;SDS011;2670;42.720;23.336;2023-04-24T14:47:10;7.07;;;4.10;;
5295;SDS011;2670;42.720;23.336;2023-04-24T14:49:36;13.60;;;4.73;;
5295;SDS011;2670;42.720;23.336;2023-04-24T14:52:04;10.93;;;5.00;;
5295;SDS011;2670;42.720;23.336;2023-04-24T14:54:32;6.20;;;4.17;;
5295;SDS011;2670;42.720;23.336;2023-04-24T14:56:59;7.57;;;4.87;;
5295;SDS011;2670;42.720;23.336;2023-04-24T14:59:27;5.50;;;4.33;;
5295;SDS011;2670;42.720;23.336;2023-04-24T15:01:53;10.33;;;6.00;;